sensor_id;sensor_type;location;lat;lon;timestamp;pressure;altitude;pressure_sealevel;temperature;humidity
6024;BME280;3040;42.654;23.296;2023-09-18T00:00:18;94737.06;;;18.45;91.45
6024;BME280;3040;42.654;23.296;2023-09-18T00:02:46;94732.59;;;18.59;88.89
6024;BME280;3040;42.654;23.296;2023-09-18T00:05:13;94733.16;;;18.86;87.76
6024;BME280;3040;42.654;23.296;2023-09-18T00:07:41;94725.06;;;18.93;86.60
6024;BME280;3040;42.654;23.296;2023-09-18T00:10:08;94727.44;;;18.98;86.66
6024;BME280;3040;42.654;23.296;2023-09-18T00:12:35;94716.47;;;18.70;86.15
6024;BME280;3040;42.654;23.296;2023-09-18T00:15:04;94728.91;;;18.85;85.91
6024;BME280;3040;42.654;23.296;2023-09-18T00:17:35;94706.84;;;18.69;85.42
6024;BME280;3040;42.654;23.296;2023-09-18T00:20:02;94724.34;;;18.96;85.54
6024;BME280;3040;42.654;23.296;2023-09-18T00:22:30;94725.91;;;19.04;85.16
6024;BME280;3040;42.654;23.296;2023-09-18T00:24:57;94725.16;;;19.07;84.88
6024;BME280;3040;42.654;23.296;2023-09-18T00:27:24;94722.00;;;18.91;84.57
6024;BME280;3040;42.654;23.296;2023-09-18T00:29:51;94687.97;;;18.62;85.69
6024;BME280;3040;42.654;23.296;2023-09-18T00:32:17;94725.03;;;18.79;85.59
6024;BME280;3040;42.654;23.296;2023-09-18T00:34:46;94727.00;;;18.35;88.56
6024;BME280;3040;42.654;23.296;2023-09-18T00:37:12;94732.50;;;18.49;88.62
6024;BME280;3040;42.654;23.296;2023-09-18T00:39:39;94734.97;;;18.68;87.60
6024;BME280;3040;42.654;23.296;2023-09-18T00:42:06;94728.41;;;18.69;86.33
6024;BME280;3040;42.654;23.296;2023-09-18T00:44:32;94741.56;;;18.74;86.64
6024;BME280;3040;42.654;23.296;2023-09-18T00:46:59;94630.94;;;17.91;85.88
6024;BME280;3040;42.654;23.296;2023-09-18T00:49:26;94734.16;;;18.64;86.39
6024;BME280;3040;42.654;23.296;2023-09-18T00:51:54;94741.56;;;18.78;85.78
6024;BME280;3040;42.654;23.296;2023-09-18T00:54:21;94709.53;;;18.62;85.33
6024;BME280;3040;42.654;23.296;2023-09-18T00:56:49;94738.22;;;18.98;84.41
6024;BME280;3040;42.654;23.296;2023-09-18T00:59:19;94751.69;;;19.02;83.87
6024;BME280;3040;42.654;23.296;2023-09-18T01:01:48;94746.69;;;19.00;84.50
6024;BME280;3040;42.654;23.296;2023-09-18T01:04:16;94742.06;;;18.97;84.43
6024;BME280;3040;42.654;23.296;2023-09-18T01:06:43;94735.94;;;19.07;84.69
6024;BME280;3040;42.654;23.296;2023-09-18T01:09:11;94755.09;;;18.88;85.14
6024;BME280;3040;42.654;23.296;2023-09-18T01:11:50;94749.75;;;18.95;85.23
6024;BME280;3040;42.654;23.296;2023-09-18T01:17:09;94748.19;;;18.94;85.09
6024;BME280;3040;42.654;23.296;2023-09-18T01:19:38;94732.06;;;18.98;84.79
6024;BME280;3040;42.654;23.296;2023-09-18T01:22:05;94751.38;;;19.10;84.34
6024;BME280;3040;42.654;23.296;2023-09-18T01:24:34;94745.56;;;19.08;83.45
6024;BME280;3040;42.654;23.296;2023-09-18T01:27:01;94744.47;;;19.17;83.89
6024;BME280;3040;42.654;23.296;2023-09-18T01:29:29;94748.31;;;19.16;84.07
6024;BME280;3040;42.654;23.296;2023-09-18T01:31:57;94739.00;;;19.02;82.64
6024;BME280;3040;42.654;23.296;2023-09-18T01:34:26;94741.25;;;18.93;82.19
6024;BME280;3040;42.654;23.296;2023-09-18T01:36:57;94740.91;;;18.98;82.30
6024;BME280;3040;42.654;23.296;2023-09-18T01:39:25;94742.84;;;19.01;83.06
6024;BME280;3040;42.654;23.296;2023-09-18T01:41:58;94732.00;;;18.94;84.06
6024;BME280;3040;42.654;23.296;2023-09-18T01:44:27;94752.13;;;19.07;83.67
6024;BME280;3040;42.654;23.296;2023-09-18T01:46:54;94736.94;;;18.78;83.13
6024;BME280;3040;42.654;23.296;2023-09-18T01:49:29;94751.16;;;18.72;83.79
6024;BME280;3040;42.654;23.296;2023-09-18T01:51:56;94743.47;;;18.74;84.75
6024;BME280;3040;42.654;23.296;2023-09-18T01:54:23;94722.94;;;18.55;85.64
6024;BME280;3040;42.654;23.296;2023-09-18T01:56:50;94713.19;;;18.36;84.31
6024;BME280;3040;42.654;23.296;2023-09-18T01:59:18;94742.59;;;18.59;85.64
6024;BME280;3040;42.654;23.296;2023-09-18T02:01:45;94748.03;;;18.66;85.85
6024;BME280;3040;42.654;23.296;2023-09-18T02:04:12;94749.22;;;18.72;86.26
6024;BME280;3040;42.654;23.296;2023-09-18T02:06:39;94754.25;;;18.77;84.19
6024;BME280;3040;42.654;23.296;2023-09-18T02:09:06;94751.94;;;18.76;83.59
6024;BME280;3040;42.654;23.296;2023-09-18T02:11:35;94757.63;;;18.60;85.97
6024;BME280;3040;42.654;23.296;2023-09-18T02:14:02;94755.75;;;18.71;85.36
6024;BME280;3040;42.654;23.296;2023-09-18T02:16:32;94760.81;;;18.80;84.84
6024;BME280;3040;42.654;23.296;2023-09-18T02:18:59;94751.25;;;18.86;84.77
6024;BME280;3040;42.654;23.296;2023-09-18T02:21:26;94597.38;;;17.71;85.92
6024;BME280;3040;42.654;23.296;2023-09-18T02:23:53;94751.88;;;18.61;86.54
6024;BME280;3040;42.654;23.296;2023-09-18T02:26:21;94756.06;;;18.59;87.39
6024;BME280;3040;42.654;23.296;2023-09-18T02:28:48;94747.84;;;18.45;87.62
6024;BME280;3040;42.654;23.296;2023-09-18T02:31:15;94742.91;;;18.50;88.07
6024;BME280;3040;42.654;23.296;2023-09-18T02:33:43;94734.38;;;18.45;87.32
6024;BME280;3040;42.654;23.296;2023-09-18T02:36:10;94754.91;;;18.60;87.89
6024;BME280;3040;42.654;23.296;2023-09-18T02:38:37;94741.81;;;18.55;87.61
6024;BME280;3040;42.654;23.296;2023-09-18T02:41:03;94748.19;;;18.40;88.56
6024;BME280;3040;42.654;23.296;2023-09-18T02:43:30;94741.13;;;18.17;90.19
6024;BME280;3040;42.654;23.296;2023-09-18T02:45:57;94743.88;;;18.28;88.68
6024;BME280;3040;42.654;23.296;2023-09-18T02:48:24;94752.44;;;18.37;87.29
6024;BME280;3040;42.654;23.296;2023-09-18T02:50:52;94757.81;;;18.37;85.35
6024;BME280;3040;42.654;23.296;2023-09-18T02:53:20;94751.47;;;18.15;89.85
6024;BME280;3040;42.654;23.296;2023-09-18T02:55:50;94753.38;;;18.15;86.82
6024;BME280;3040;42.654;23.296;2023-09-18T02:58:18;94740.34;;;18.20;86.74
6024;BME280;3040;42.654;23.296;2023-09-18T03:00:46;94751.25;;;18.35;86.06
6024;BME280;3040;42.654;23.296;2023-09-18T03:03:14;94757.81;;;18.41;85.71
6024;BME280;3040;42.654;23.296;2023-09-18T03:05:42;94765.97;;;18.48;86.05
6024;BME280;3040;42.654;23.296;2023-09-18T03:08:11;94759.44;;;18.49;85.64
6024;BME280;3040;42.654;23.296;2023-09-18T03:10:38;94761.00;;;18.53;85.72
6024;BME280;3040;42.654;23.296;2023-09-18T03:13:06;94717.78;;;18.36;86.41
6024;BME280;3040;42.654;23.296;2023-09-18T03:15:34;94751.81;;;18.58;84.76
6024;BME280;3040;42.654;23.296;2023-09-18T03:18:03;94709.59;;;18.21;85.73
6024;BME280;3040;42.654;23.296;2023-09-18T03:20:30;94764.47;;;18.54;85.87
6024;BME280;3040;42.654;23.296;2023-09-18T03:22:58;94754.91;;;18.60;85.87
6024;BME280;3040;42.654;23.296;2023-09-18T03:25:27;94746.44;;;18.58;85.40
6024;BME280;3040;42.654;23.296;2023-09-18T03:27:55;94722.34;;;18.28;85.39
6024;BME280;3040;42.654;23.296;2023-09-18T03:30:23;94743.66;;;18.51;85.56
6024;BME280;3040;42.654;23.296;2023-09-18T03:32:50;94748.75;;;18.56;85.85
6024;BME280;3040;42.654;23.296;2023-09-18T03:35:18;94736.75;;;18.53;84.91
6024;BME280;3040;42.654;23.296;2023-09-18T03:37:46;94737.53;;;18.54;85.58
6024;BME280;3040;42.654;23.296;2023-09-18T03:40:13;94736.41;;;18.55;85.21
6024;BME280;3040;42.654;23.296;2023-09-18T03:42:41;94736.28;;;18.37;87.99
6024;BME280;3040;42.654;23.296;2023-09-18T03:45:09;94733.59;;;18.41;88.38
6024;BME280;3040;42.654;23.296;2023-09-18T03:47:36;94701.13;;;18.19;88.20
6024;BME280;3040;42.654;23.296;2023-09-18T03:50:05;94721.69;;;18.45;86.86
6024;BME280;3040;42.654;23.296;2023-09-18T03:52:32;94673.75;;;18.10;87.14
6024;BME280;3040;42.654;23.296;2023-09-18T03:54:59;94725.00;;;17.77;91.82
6024;BME280;3040;42.654;23.296;2023-09-18T03:57:25;94717.38;;;17.82;92.60
6024;BME280;3040;42.654;23.296;2023-09-18T03:59:53;94731.00;;;18.04;89.63
6024;BME280;3040;42.654;23.296;2023-09-18T04:02:21;94728.06;;;17.75;89.84
6024;BME280;3040;42.654;23.296;2023-09-18T04:04:48;94728.84;;;17.76;91.30
6024;BME280;3040;42.654;23.296;2023-09-18T04:07:15;94706.16;;;17.77;91.07
6024;BME280;3040;42.654;23.296;2023-09-18T04:09:42;94667.66;;;17.69;91.62
6024;BME280;3040;42.654;23.296;2023-09-18T04:12:08;94692.03;;;17.87;89.88
6024;BME280;3040;42.654;23.296;2023-09-18T04:14:35;94724.50;;;18.08;89.90
6024;BME280;3040;42.654;23.296;2023-09-18T04:17:04;94711.91;;;17.72;91.04
6024;BME280;3040;42.654;23.296;2023-09-18T04:19:30;94736.00;;;18.05;89.29
6024;BME280;3040;42.654;23.296;2023-09-18T04:21:57;94749.94;;;18.14;88.83
6024;BME280;3040;42.654;23.296;2023-09-18T04:24:25;94746.00;;;18.05;89.50
6024;BME280;3040;42.654;23.296;2023-09-18T04:26:52;94750.25;;;18.09;90.01
6024;BME280;3040;42.654;23.296;2023-09-18T04:29:19;94751.16;;;18.24;89.42
6024;BME280;3040;42.654;23.296;2023-09-18T04:31:47;94756.22;;;18.33;88.70
6024;BME280;3040;42.654;23.296;2023-09-18T04:34:15;94743.72;;;18.07;88.71
6024;BME280;3040;42.654;23.296;2023-09-18T04:36:42;94746.94;;;18.26;87.96
6024;BME280;3040;42.654;23.296;2023-09-18T04:39:10;94750.03;;;18.28;88.31
6024;BME280;3040;42.654;23.296;2023-09-18T04:41:37;94751.75;;;18.51;88.56
6024;BME280;3040;42.654;23.296;2023-09-18T04:44:04;94751.03;;;18.57;87.55
6024;BME280;3040;42.654;23.296;2023-09-18T04:46:33;94761.16;;;18.71;86.68
6024;BME280;3040;42.654;23.296;2023-09-18T04:49:00;94755.81;;;18.78;86.82
6024;BME280;3040;42.654;23.296;2023-09-18T04:51:30;94762.03;;;18.89;87.06
6024;BME280;3040;42.654;23.296;2023-09-18T04:53:58;94757.41;;;18.86;86.11
6024;BME280;3040;42.654;23.296;2023-09-18T04:56:24;94735.16;;;19.03;85.82
6024;BME280;3040;42.654;23.296;2023-09-18T04:58:52;94719.00;;;19.10;84.82
6024;BME280;3040;42.654;23.296;2023-09-18T05:01:19;94728.31;;;19.31;84.12
6024;BME280;3040;42.654;23.296;2023-09-18T05:03:45;94753.88;;;19.58;84.20
6024;BME280;3040;42.654;23.296;2023-09-18T05:06:14;94741.56;;;19.71;83.75
6024;BME280;3040;42.654;23.296;2023-09-18T05:08:42;94753.94;;;19.86;83.24
6024;BME280;3040;42.654;23.296;2023-09-18T05:11:09;94747.03;;;20.00;82.94
6024;BME280;3040;42.654;23.296;2023-09-18T05:13:35;94753.97;;;20.15;82.23
6024;BME280;3040;42.654;23.296;2023-09-18T05:16:02;94750.13;;;20.26;81.50
6024;BME280;3040;42.654;23.296;2023-09-18T05:18:29;94752.41;;;20.31;81.39
6024;BME280;3040;42.654;23.296;2023-09-18T05:20:56;94755.53;;;20.44;81.28
6024;BME280;3040;42.654;23.296;2023-09-18T05:23:23;94580.38;;;19.33;80.67
6024;BME280;3040;42.654;23.296;2023-09-18T05:25:51;94764.03;;;20.60;80.55
6024;BME280;3040;42.654;23.296;2023-09-18T05:28:18;94770.97;;;20.68;81.30
6024;BME280;3040;42.654;23.296;2023-09-18T05:30:45;94773.66;;;20.76;80.48
6024;BME280;3040;42.654;23.296;2023-09-18T05:33:12;94757.84;;;20.78;80.33
6024;BME280;3040;42.654;23.296;2023-09-18T05:35:40;94764.34;;;20.94;79.77
6024;BME280;3040;42.654;23.296;2023-09-18T05:38:07;94768.59;;;21.06;79.30
6024;BME280;3040;42.654;23.296;2023-09-18T05:40:35;94767.81;;;21.16;78.42
6024;BME280;3040;42.654;23.296;2023-09-18T05:43:03;94772.84;;;21.21;78.18
6024;BME280;3040;42.654;23.296;2023-09-18T05:45:30;94768.16;;;21.32;77.80
6024;BME280;3040;42.654;23.296;2023-09-18T05:47:58;94738.03;;;21.16;77.13
6024;BME280;3040;42.654;23.296;2023-09-18T05:50:29;94779.75;;;21.29;76.60
6024;BME280;3040;42.654;23.296;2023-09-18T05:52:57;94783.19;;;21.40;76.35
6024;BME280;3040;42.654;23.296;2023-09-18T05:55:25;94778.56;;;21.37;76.71
6024;BME280;3040;42.654;23.296;2023-09-18T05:57:52;94778.53;;;21.41;76.58
6024;BME280;3040;42.654;23.296;2023-09-18T06:00:20;94770.47;;;21.30;76.26
6024;BME280;3040;42.654;23.296;2023-09-18T06:02:47;94774.41;;;21.15;77.68
6024;BME280;3040;42.654;23.296;2023-09-18T06:05:14;94772.06;;;21.21;77.45
6024;BME280;3040;42.654;23.296;2023-09-18T06:07:42;94654.44;;;19.92;79.41
6024;BME280;3040;42.654;23.296;2023-09-18T06:10:10;94770.56;;;20.81;79.18
6024;BME280;3040;42.654;23.296;2023-09-18T06:12:38;94629.78;;;19.94;78.36
6024;BME280;3040;42.654;23.296;2023-09-18T06:15:06;94774.00;;;21.06;78.32
6024;BME280;3040;42.654;23.296;2023-09-18T06:17:35;94767.81;;;21.02;76.94
6024;BME280;3040;42.654;23.296;2023-09-18T06:20:02;94775.53;;;21.14;78.21
6024;BME280;3040;42.654;23.296;2023-09-18T06:22:29;94729.97;;;21.02;77.42
6024;BME280;3040;42.654;23.296;2023-09-18T06:24:56;94782.38;;;21.47;76.13
6024;BME280;3040;42.654;23.296;2023-09-18T06:27:23;94754.56;;;21.43;75.48
6024;BME280;3040;42.654;23.296;2023-09-18T06:29:50;94788.53;;;21.58;74.96
6024;BME280;3040;42.654;23.296;2023-09-18T06:32:16;94785.72;;;21.79;75.21
6024;BME280;3040;42.654;23.296;2023-09-18T06:34:45;94792.44;;;21.46;75.69
6024;BME280;3040;42.654;23.296;2023-09-18T06:37:12;94786.16;;;21.67;74.41
6024;BME280;3040;42.654;23.296;2023-09-18T06:39:39;94783.88;;;21.62;74.71
6024;BME280;3040;42.654;23.296;2023-09-18T06:42:06;94782.28;;;21.75;74.21
6024;BME280;3040;42.654;23.296;2023-09-18T06:44:34;94784.19;;;21.82;74.39
6024;BME280;3040;42.654;23.296;2023-09-18T06:47:01;94783.78;;;21.76;74.06
6024;BME280;3040;42.654;23.296;2023-09-18T06:49:28;94783.72;;;21.98;74.48
6024;BME280;3040;42.654;23.296;2023-09-18T06:51:57;94780.41;;;22.27;72.81
6024;BME280;3040;42.654;23.296;2023-09-18T06:54:24;94756.41;;;22.29;71.72
6024;BME280;3040;42.654;23.296;2023-09-18T06:56:50;94784.50;;;22.50;70.94
6024;BME280;3040;42.654;23.296;2023-09-18T06:59:17;94766.44;;;22.32;71.39
6024;BME280;3040;42.654;23.296;2023-09-18T07:01:44;94760.53;;;21.86;72.45
6024;BME280;3040;42.654;23.296;2023-09-18T07:04:11;94782.88;;;22.08;72.42
6024;BME280;3040;42.654;23.296;2023-09-18T07:06:38;94779.84;;;21.99;72.66
6024;BME280;3040;42.654;23.296;2023-09-18T07:09:06;94788.25;;;22.15;71.87
6024;BME280;3040;42.654;23.296;2023-09-18T07:11:33;94791.19;;;22.38;71.37
6024;BME280;3040;42.654;23.296;2023-09-18T07:14:00;94777.53;;;22.49;71.28
6024;BME280;3040;42.654;23.296;2023-09-18T07:16:27;94765.53;;;22.50;70.19
6024;BME280;3040;42.654;23.296;2023-09-18T07:18:54;94761.41;;;22.79;70.43
6024;BME280;3040;42.654;23.296;2023-09-18T07:21:21;94758.44;;;23.07;68.92
6024;BME280;3040;42.654;23.296;2023-09-18T07:23:48;94756.53;;;23.38;67.67
6024;BME280;3040;42.654;23.296;2023-09-18T07:26:17;94787.50;;;23.78;65.93
6024;BME280;3040;42.654;23.296;2023-09-18T07:28:43;94785.63;;;24.02;65.52
6024;BME280;3040;42.654;23.296;2023-09-18T07:31:11;94699.72;;;23.81;63.94
6024;BME280;3040;42.654;23.296;2023-09-18T07:33:39;94793.13;;;24.71;61.55
6024;BME280;3040;42.654;23.296;2023-09-18T07:36:06;94788.72;;;24.31;62.18
6024;BME280;3040;42.654;23.296;2023-09-18T07:38:35;94795.22;;;24.64;62.25
6024;BME280;3040;42.654;23.296;2023-09-18T07:41:02;94785.97;;;24.81;61.36
6024;BME280;3040;42.654;23.296;2023-09-18T07:43:30;94786.88;;;24.98;61.40
6024;BME280;3040;42.654;23.296;2023-09-18T07:45:57;94770.78;;;25.07;60.64
6024;BME280;3040;42.654;23.296;2023-09-18T07:48:25;94785.44;;;25.33;59.71
6024;BME280;3040;42.654;23.296;2023-09-18T07:50:52;94785.47;;;25.52;58.55
6024;BME280;3040;42.654;23.296;2023-09-18T07:53:20;94778.41;;;25.75;56.14
6024;BME280;3040;42.654;23.296;2023-09-18T07:55:48;94780.09;;;25.69;57.47
6024;BME280;3040;42.654;23.296;2023-09-18T07:58:14;94783.06;;;25.94;56.73
6024;BME280;3040;42.654;23.296;2023-09-18T08:00:42;94779.53;;;26.13;56.44
6024;BME280;3040;42.654;23.296;2023-09-18T08:03:09;94776.69;;;26.37;56.22
6024;BME280;3040;42.654;23.296;2023-09-18T08:05:36;94778.25;;;26.02;55.64
6024;BME280;3040;42.654;23.296;2023-09-18T08:08:03;94774.25;;;25.70;56.31
6024;BME280;3040;42.654;23.296;2023-09-18T08:10:31;94774.47;;;25.96;56.15
6024;BME280;3040;42.654;23.296;2023-09-18T08:12:58;94776.09;;;26.29;56.38
6024;BME280;3040;42.654;23.296;2023-09-18T08:15:25;94770.91;;;26.51;55.32
6024;BME280;3040;42.654;23.296;2023-09-18T08:17:54;94775.69;;;26.79;53.69
6024;BME280;3040;42.654;23.296;2023-09-18T08:20:20;94771.16;;;27.05;52.52
6024;BME280;3040;42.654;23.296;2023-09-18T08:22:47;94701.84;;;26.70;52.75
6024;BME280;3040;42.654;23.296;2023-09-18T08:25:16;94771.16;;;27.34;51.53
6024;BME280;3040;42.654;23.296;2023-09-18T08:27:42;94760.88;;;27.38;53.20
6024;BME280;3040;42.654;23.296;2023-09-18T08:30:11;94751.16;;;27.53;51.60
6024;BME280;3040;42.654;23.296;2023-09-18T08:32:38;94743.75;;;27.66;50.84
6024;BME280;3040;42.654;23.296;2023-09-18T08:35:08;94765.69;;;28.17;50.43
6024;BME280;3040;42.654;23.296;2023-09-18T08:37:35;94639.34;;;27.71;49.03
6024;BME280;3040;42.654;23.296;2023-09-18T08:40:02;94740.97;;;28.33;48.25
6024;BME280;3040;42.654;23.296;2023-09-18T08:42:35;94708.78;;;28.37;48.61
6024;BME280;3040;42.654;23.296;2023-09-18T08:45:04;94744.72;;;28.86;46.37
6024;BME280;3040;42.654;23.296;2023-09-18T08:47:35;94746.50;;;28.55;46.26
6024;BME280;3040;42.654;23.296;2023-09-18T08:50:03;94737.06;;;27.67;48.40
6024;BME280;3040;42.654;23.296;2023-09-18T08:52:32;94738.19;;;27.41;50.80
6024;BME280;3040;42.654;23.296;2023-09-18T08:54:58;94727.38;;;27.08;50.02
6024;BME280;3040;42.654;23.296;2023-09-18T08:57:27;94737.44;;;27.94;48.78
6024;BME280;3040;42.654;23.296;2023-09-18T08:59:56;94711.53;;;28.37;46.68
6024;BME280;3040;42.654;23.296;2023-09-18T09:02:26;94719.59;;;29.00;45.18
6024;BME280;3040;42.654;23.296;2023-09-18T09:04:53;94740.53;;;29.50;43.89
6024;BME280;3040;42.654;23.296;2023-09-18T09:07:20;94701.84;;;28.58;43.25
6024;BME280;3040;42.654;23.296;2023-09-18T09:09:48;94735.84;;;28.69;45.05
6024;BME280;3040;42.654;23.296;2023-09-18T09:12:14;94725.75;;;28.32;44.74
6024;BME280;3040;42.654;23.296;2023-09-18T09:15:02;94736.53;;;26.86;48.07
6024;BME280;3040;42.654;23.296;2023-09-18T09:17:30;94727.91;;;26.71;49.61
6024;BME280;3040;42.654;23.296;2023-09-18T09:20:08;94724.81;;;27.01;49.33
6024;BME280;3040;42.654;23.296;2023-09-18T09:22:36;94698.47;;;27.24;48.24
6024;BME280;3040;42.654;23.296;2023-09-18T09:25:05;94702.56;;;27.44;45.93
6024;BME280;3040;42.654;23.296;2023-09-18T09:27:42;94727.59;;;28.35;44.85
6024;BME280;3040;42.654;23.296;2023-09-18T09:30:10;94714.44;;;28.55;43.99
6024;BME280;3040;42.654;23.296;2023-09-18T09:32:36;94710.94;;;29.02;44.08
6024;BME280;3040;42.654;23.296;2023-09-18T09:35:05;94714.00;;;29.04;41.70
6024;BME280;3040;42.654;23.296;2023-09-18T09:37:32;94712.78;;;29.05;42.64
6024;BME280;3040;42.654;23.296;2023-09-18T09:40:05;94718.78;;;28.78;41.57
6024;BME280;3040;42.654;23.296;2023-09-18T09:42:40;94705.69;;;28.95;39.63
6024;BME280;3040;42.654;23.296;2023-09-18T09:45:11;94667.44;;;27.84;41.66
6024;BME280;3040;42.654;23.296;2023-09-18T09:47:38;94702.19;;;28.94;41.55
6024;BME280;3040;42.654;23.296;2023-09-18T09:50:07;94711.94;;;29.51;40.52
6024;BME280;3040;42.654;23.296;2023-09-18T09:52:35;94697.72;;;29.66;39.53
6024;BME280;3040;42.654;23.296;2023-09-18T09:55:04;94697.59;;;29.47;38.93
6024;BME280;3040;42.654;23.296;2023-09-18T09:57:46;94703.91;;;29.35;40.22
6024;BME280;3040;42.654;23.296;2023-09-18T10:00:14;94698.19;;;30.04;37.97
6024;BME280;3040;42.654;23.296;2023-09-18T10:02:54;94677.84;;;30.23;38.35
6024;BME280;3040;42.654;23.296;2023-09-18T10:05:24;94700.88;;;31.11;37.14
6024;BME280;3040;42.654;23.296;2023-09-18T10:07:54;94704.50;;;31.54;34.86
6024;BME280;3040;42.654;23.296;2023-09-18T10:10:22;94701.44;;;30.61;37.20
6024;BME280;3040;42.654;23.296;2023-09-18T10:12:49;94699.59;;;30.49;37.74
6024;BME280;3040;42.654;23.296;2023-09-18T10:15:16;94694.28;;;31.00;37.69
6024;BME280;3040;42.654;23.296;2023-09-18T10:17:47;94680.72;;;31.24;35.99
6024;BME280;3040;42.654;23.296;2023-09-18T10:20:16;94687.47;;;31.04;36.33
6024;BME280;3040;42.654;23.296;2023-09-18T10:22:48;94701.63;;;30.94;36.74
6024;BME280;3040;42.654;23.296;2023-09-18T10:25:18;94679.31;;;30.06;37.34
6024;BME280;3040;42.654;23.296;2023-09-18T10:27:50;94684.78;;;29.23;39.29
6024;BME280;3040;42.654;23.296;2023-09-18T10:30:19;94662.47;;;30.35;38.55
6024;BME280;3040;42.654;23.296;2023-09-18T10:32:48;94670.59;;;30.48;36.24
6024;BME280;3040;42.654;23.296;2023-09-18T10:35:16;94646.41;;;30.06;37.47
6024;BME280;3040;42.654;23.296;2023-09-18T10:37:45;94652.81;;;29.81;36.99
6024;BME280;3040;42.654;23.296;2023-09-18T10:40:12;94653.59;;;29.07;38.65
6024;BME280;3040;42.654;23.296;2023-09-18T10:42:41;94629.72;;;29.61;38.26
6024;BME280;3040;42.654;23.296;2023-09-18T10:45:11;94655.19;;;30.50;36.84
6024;BME280;3040;42.654;23.296;2023-09-18T10:47:39;94652.22;;;30.17;37.49
6024;BME280;3040;42.654;23.296;2023-09-18T10:50:08;94654.22;;;29.86;38.01
6024;BME280;3040;42.654;23.296;2023-09-18T10:52:35;94660.41;;;30.48;36.44
6024;BME280;3040;42.654;23.296;2023-09-18T10:55:02;94648.66;;;30.75;36.02
6024;BME280;3040;42.654;23.296;2023-09-18T10:57:33;94574.53;;;30.66;35.11
6024;BME280;3040;42.654;23.296;2023-09-18T11:00:01;94646.22;;;31.23;34.31
6024;BME280;3040;42.654;23.296;2023-09-18T11:02:40;94642.91;;;31.09;34.65
6024;BME280;3040;42.654;23.296;2023-09-18T11:05:07;94640.22;;;30.42;35.30
6024;BME280;3040;42.654;23.296;2023-09-18T11:07:34;94584.06;;;29.67;37.50
6024;BME280;3040;42.654;23.296;2023-09-18T11:10:30;94628.41;;;30.05;37.44
6024;BME280;3040;42.654;23.296;2023-09-18T11:13:05;94634.03;;;30.60;35.82
6024;BME280;3040;42.654;23.296;2023-09-18T11:15:33;94627.31;;;30.88;35.28
6024;BME280;3040;42.654;23.296;2023-09-18T11:18:02;94643.66;;;31.79;34.45
6024;BME280;3040;42.654;23.296;2023-09-18T11:20:29;94620.44;;;31.71;34.63
6024;BME280;3040;42.654;23.296;2023-09-18T11:22:57;94633.00;;;31.54;34.47
6024;BME280;3040;42.654;23.296;2023-09-18T11:25:45;94618.59;;;31.77;33.80
6024;BME280;3040;42.654;23.296;2023-09-18T11:28:14;94618.81;;;32.54;32.66
6024;BME280;3040;42.654;23.296;2023-09-18T11:30:52;94619.09;;;33.33;31.44
6024;BME280;3040;42.654;23.296;2023-09-18T11:33:34;94463.84;;;32.68;30.52
6024;BME280;3040;42.654;23.296;2023-09-18T11:36:04;94602.81;;;34.14;30.15
6024;BME280;3040;42.654;23.296;2023-09-18T11:38:33;94513.00;;;33.99;29.07
6024;BME280;3040;42.654;23.296;2023-09-18T11:43:43;94602.50;;;34.27;28.45
6024;BME280;3040;42.654;23.296;2023-09-18T11:46:11;94599.34;;;33.99;29.39
6024;BME280;3040;42.654;23.296;2023-09-18T11:48:41;94462.34;;;32.97;29.37
6024;BME280;3040;42.654;23.296;2023-09-18T11:51:08;94587.00;;;33.80;29.63
6024;BME280;3040;42.654;23.296;2023-09-18T11:53:38;94445.13;;;31.57;31.20
6024;BME280;3040;42.654;23.296;2023-09-18T11:56:10;94593.84;;;32.96;30.18
6024;BME280;3040;42.654;23.296;2023-09-18T11:58:45;94596.34;;;33.24;30.84
6024;BME280;3040;42.654;23.296;2023-09-18T12:01:11;94573.81;;;33.55;29.66
6024;BME280;3040;42.654;23.296;2023-09-18T12:03:42;94597.59;;;34.37;29.21
6024;BME280;3040;42.654;23.296;2023-09-18T12:06:09;94596.97;;;34.27;28.27
6024;BME280;3040;42.654;23.296;2023-09-18T12:08:38;94593.63;;;33.88;29.55
6024;BME280;3040;42.654;23.296;2023-09-18T12:11:06;94593.63;;;33.88;29.36
6024;BME280;3040;42.654;23.296;2023-09-18T12:13:33;94588.34;;;33.84;29.23
6024;BME280;3040;42.654;23.296;2023-09-18T12:16:01;94590.66;;;33.27;29.80
6024;BME280;3040;42.654;23.296;2023-09-18T12:18:30;94511.44;;;31.50;31.40
6024;BME280;3040;42.654;23.296;2023-09-18T12:20:59;94584.13;;;31.16;33.59
6024;BME280;3040;42.654;23.296;2023-09-18T12:23:26;94587.50;;;31.53;33.12
6024;BME280;3040;42.654;23.296;2023-09-18T12:25:58;94577.75;;;31.52;33.69
6024;BME280;3040;42.654;23.296;2023-09-18T12:28:26;94572.13;;;31.79;32.42
6024;BME280;3040;42.654;23.296;2023-09-18T12:30:54;94561.81;;;31.14;33.75
6024;BME280;3040;42.654;23.296;2023-09-18T12:33:21;94570.66;;;31.27;32.94
6024;BME280;3040;42.654;23.296;2023-09-18T12:35:49;94556.88;;;32.02;33.42
6024;BME280;3040;42.654;23.296;2023-09-18T12:38:18;94576.63;;;32.48;33.70
6024;BME280;3040;42.654;23.296;2023-09-18T12:40:50;94568.22;;;33.34;32.24
6024;BME280;3040;42.654;23.296;2023-09-18T12:43:17;94572.53;;;33.85;31.42
6024;BME280;3040;42.654;23.296;2023-09-18T12:45:45;94569.16;;;33.46;31.76
6024;BME280;3040;42.654;23.296;2023-09-18T12:48:13;94465.44;;;33.04;31.59
6024;BME280;3040;42.654;23.296;2023-09-18T12:50:40;94571.34;;;33.42;31.75
6024;BME280;3040;42.654;23.296;2023-09-18T12:53:08;94572.63;;;32.02;33.44
6024;BME280;3040;42.654;23.296;2023-09-18T12:55:37;94573.66;;;32.13;34.15
6024;BME280;3040;42.654;23.296;2023-09-18T12:58:04;94554.97;;;32.56;32.93
6024;BME280;3040;42.654;23.296;2023-09-18T13:00:33;94562.22;;;33.36;32.18
6024;BME280;3040;42.654;23.296;2023-09-18T13:03:00;94559.28;;;33.89;30.74
6024;BME280;3040;42.654;23.296;2023-09-18T13:05:29;94379.84;;;32.93;30.46
6024;BME280;3040;42.654;23.296;2023-09-18T13:08:02;94547.34;;;34.53;29.84
6024;BME280;3040;42.654;23.296;2023-09-18T13:10:41;94564.88;;;34.50;28.96
6024;BME280;3040;42.654;23.296;2023-09-18T13:13:16;94555.84;;;34.29;29.10
6024;BME280;3040;42.654;23.296;2023-09-18T13:15:43;94534.91;;;33.52;30.32
6024;BME280;3040;42.654;23.296;2023-09-18T13:18:11;94555.59;;;33.77;30.05
6024;BME280;3040;42.654;23.296;2023-09-18T13:20:38;94556.41;;;33.34;30.24